sensor_id;sensor_type;location;lat;lon;timestamp;pressure;altitude;pressure_sealevel;temperature;humidity
45345;BME280;31078;48.304;11.896;2023-01-31T00:01:05;96867.13;;;1.34;84.83
45345;BME280;31078;48.304;11.896;2023-01-31T00:03:31;96879.47;;;1.35;85.28
45345;BME280;31078;48.304;11.896;2023-01-31T00:06:08;96882.66;;;1.32;85.35
45345;BME280;31078;48.304;11.896;2023-01-31T00:08:35;96881.34;;;1.34;85.71
45345;BME280;31078;48.304;11.896;2023-01-31T00:11:01;96888.66;;;1.39;85.50
45345;BME280;31078;48.304;11.896;2023-01-31T00:13:28;96878.59;;;1.29;85.35
45345;BME280;31078;48.304;11.896;2023-01-31T00:15:55;96872.75;;;1.32;85.21
45345;BME280;31078;48.304;11.896;2023-01-31T00:18:22;96862.81;;;1.33;85.06
45345;BME280;31078;48.304;11.896;2023-01-31T00:20:48;96876.47;;;1.31;85.48
45345;BME280;31078;48.304;11.896;2023-01-31T00:23:16;96878.91;;;1.33;85.16
45345;BME280;31078;48.304;11.896;2023-01-31T00:25:43;96877.91;;;1.39;84.94
45345;BME280;31078;48.304;11.896;2023-01-31T00:28:09;96878.47;;;1.41;84.88
45345;BME280;31078;48.304;11.896;2023-01-31T00:30:36;96862.25;;;1.30;85.63
45345;BME280;31078;48.304;11.896;2023-01-31T00:33:02;96875.16;;;1.34;85.46
45345;BME280;31078;48.304;11.896;2023-01-31T00:35:29;96882.22;;;1.40;85.19
45345;BME280;31078;48.304;11.896;2023-01-31T00:37:55;96874.19;;;1.40;85.26
45345;BME280;31078;48.304;11.896;2023-01-31T00:40:23;96878.72;;;1.39;84.81
45345;BME280;31078;48.304;11.896;2023-01-31T00:42:49;96875.25;;;1.39;85.28
45345;BME280;31078;48.304;11.896;2023-01-31T00:45:16;96875.50;;;1.37;85.29
45345;BME280;31078;48.304;11.896;2023-01-31T00:47:42;96869.13;;;1.43;85.15
45345;BME280;31078;48.304;11.896;2023-01-31T00:50:13;96865.25;;;1.34;85.26
45345;BME280;31078;48.304;11.896;2023-01-31T00:52:39;96876.78;;;1.35;85.43
45345;BME280;31078;48.304;11.896;2023-01-31T00:55:06;96867.63;;;1.30;85.68
45345;BME280;31078;48.304;11.896;2023-01-31T00:57:34;96864.44;;;1.34;85.49
45345;BME280;31078;48.304;11.896;2023-01-31T01:00:00;96865.97;;;1.29;85.59
45345;BME280;31078;48.304;11.896;2023-01-31T01:02:27;96864.69;;;1.32;85.81
45345;BME280;31078;48.304;11.896;2023-01-31T01:04:53;96867.13;;;1.34;85.40
45345;BME280;31078;48.304;11.896;2023-01-31T01:07:20;96871.41;;;1.35;85.45
45345;BME280;31078;48.304;11.896;2023-01-31T01:09:46;96866.56;;;1.32;85.64
45345;BME280;31078;48.304;11.896;2023-01-31T01:12:13;96866.56;;;1.32;85.17
45345;BME280;31078;48.304;11.896;2023-01-31T01:14:40;96868.19;;;1.33;85.31
45345;BME280;31078;48.304;11.896;2023-01-31T01:17:07;96861.69;;;1.28;85.82
45345;BME280;31078;48.304;11.896;2023-01-31T01:19:33;96870.78;;;1.27;85.73
45345;BME280;31078;48.304;11.896;2023-01-31T01:22:00;96878.41;;;1.36;85.43
45345;BME280;31078;48.304;11.896;2023-01-31T01:24:28;96876.72;;;1.29;85.44
45345;BME280;31078;48.304;11.896;2023-01-31T01:26:54;96865.91;;;1.24;85.85
45345;BME280;31078;48.304;11.896;2023-01-31T01:29:21;96865.69;;;1.26;85.70
45345;BME280;31078;48.304;11.896;2023-01-31T01:31:49;96868.84;;;1.23;85.51
45345;BME280;31078;48.304;11.896;2023-01-31T01:34:16;96869.16;;;1.26;85.57
45345;BME280;31078;48.304;11.896;2023-01-31T01:36:43;96875.59;;;1.25;85.41
45345;BME280;31078;48.304;11.896;2023-01-31T01:39:11;96864.28;;;1.23;85.64
45345;BME280;31078;48.304;11.896;2023-01-31T01:41:39;96862.19;;;1.25;85.68
45345;BME280;31078;48.304;11.896;2023-01-31T01:47:12;96872.59;;;1.22;85.81
45345;BME280;31078;48.304;11.896;2023-01-31T01:49:41;96878.75;;;1.22;85.77
45345;BME280;31078;48.304;11.896;2023-01-31T01:52:09;96887.88;;;1.21;86.09
45345;BME280;31078;48.304;11.896;2023-01-31T01:54:43;96882.66;;;1.32;85.80
45345;BME280;31078;48.304;11.896;2023-01-31T01:57:12;96881.38;;;1.17;86.15
45345;BME280;31078;48.304;11.896;2023-01-31T01:59:43;96873.78;;;1.14;86.75
45345;BME280;31078;48.304;11.896;2023-01-31T02:02:13;96875.66;;;1.14;86.58
45345;BME280;31078;48.304;11.896;2023-01-31T02:04:41;96876.97;;;1.11;86.89
45345;BME280;31078;48.304;11.896;2023-01-31T02:07:10;96884.31;;;1.16;86.73
45345;BME280;31078;48.304;11.896;2023-01-31T02:09:43;96888.34;;;1.18;86.63
45345;BME280;31078;48.304;11.896;2023-01-31T02:12:12;96885.59;;;1.13;86.53
45345;BME280;31078;48.304;11.896;2023-01-31T02:14:38;96883.97;;;1.12;86.99
45345;BME280;31078;48.304;11.896;2023-01-31T02:17:12;96897.78;;;1.04;87.38
45345;BME280;31078;48.304;11.896;2023-01-31T02:19:48;96894.06;;;1.05;87.84
45345;BME280;31078;48.304;11.896;2023-01-31T02:22:20;96901.53;;;1.03;87.68
45345;BME280;31078;48.304;11.896;2023-01-31T02:25:15;96906.88;;;1.03;87.72
45345;BME280;31078;48.304;11.896;2023-01-31T02:33:48;96904.78;;;1.05;87.77
45345;BME280;31078;48.304;11.896;2023-01-31T02:36:27;96910.63;;;1.02;87.72
45345;BME280;31078;48.304;11.896;2023-01-31T02:39:04;96906.06;;;1.02;87.99
45345;BME280;31078;48.304;11.896;2023-01-31T02:41:39;96899.91;;;1.02;87.74
45345;BME280;31078;48.304;11.896;2023-01-31T02:44:14;96905.00;;;1.03;87.50
45345;BME280;31078;48.304;11.896;2023-01-31T02:47:14;96903.72;;;1.06;87.62
45345;BME280;31078;48.304;11.896;2023-01-31T02:49:50;96908.19;;;1.00;87.61
45345;BME280;31078;48.304;11.896;2023-01-31T02:52:26;96912.50;;;1.01;87.27
45345;BME280;31078;48.304;11.896;2023-01-31T02:55:03;96919.72;;;1.01;87.68
45345;BME280;31078;48.304;11.896;2023-01-31T02:57:50;96923.56;;;1.05;87.70
45345;BME280;31078;48.304;11.896;2023-01-31T03:00:19;96925.66;;;1.03;87.28
45345;BME280;31078;48.304;11.896;2023-01-31T03:02:46;96926.72;;;1.02;87.24
45345;BME280;31078;48.304;11.896;2023-01-31T03:05:16;96933.13;;;1.01;87.37
45345;BME280;31078;48.304;11.896;2023-01-31T03:07:46;96926.81;;;1.07;86.91
45345;BME280;31078;48.304;11.896;2023-01-31T03:10:35;96926.72;;;1.02;87.10
45345;BME280;31078;48.304;11.896;2023-01-31T03:13:17;96928.03;;;0.99;87.34
45345;BME280;31078;48.304;11.896;2023-01-31T03:15:54;96928.94;;;1.05;87.09
45345;BME280;31078;48.304;11.896;2023-01-31T03:18:45;96933.22;;;1.06;86.63
45345;BME280;31078;48.304;11.896;2023-01-31T03:21:18;96948.16;;;1.02;86.40
45345;BME280;31078;48.304;11.896;2023-01-31T03:23:50;96948.16;;;1.02;86.74
45345;BME280;31078;48.304;11.896;2023-01-31T03:26:19;96955.16;;;1.03;86.77
45345;BME280;31078;48.304;11.896;2023-01-31T03:28:47;96950.59;;;1.03;86.41
45345;BME280;31078;48.304;11.896;2023-01-31T03:31:21;96971.59;;;1.07;86.19
45345;BME280;31078;48.304;11.896;2023-01-31T03:33:51;96971.25;;;1.03;86.86
45345;BME280;31078;48.304;11.896;2023-01-31T03:36:28;96964.25;;;1.02;86.66
45345;BME280;31078;48.304;11.896;2023-01-31T03:39:03;96970.94;;;0.99;86.87
45345;BME280;31078;48.304;11.896;2023-01-31T03:41:36;96960.13;;;0.94;86.90
45345;BME280;31078;48.304;11.896;2023-01-31T03:44:11;96968.97;;;0.95;86.88
45345;BME280;31078;48.304;11.896;2023-01-31T03:46:43;96972.69;;;0.94;86.71
45345;BME280;31078;48.304;11.896;2023-01-31T03:49:13;96975.97;;;0.96;86.66
45345;BME280;31078;48.304;11.896;2023-01-31T03:51:45;96974.00;;;0.91;87.10
45345;BME280;31078;48.304;11.896;2023-01-31T03:54:17;96975.88;;;0.91;87.12
45345;BME280;31078;48.304;11.896;2023-01-31T03:56:51;96967.72;;;0.86;87.23
45345;BME280;31078;48.304;11.896;2023-01-31T03:59:21;96973.66;;;0.88;87.42
45345;BME280;31078;48.304;11.896;2023-01-31T04:01:52;96971.47;;;0.85;87.31
45345;BME280;31078;48.304;11.896;2023-01-31T04:04:24;96975.69;;;0.81;87.77
45345;BME280;31078;48.304;11.896;2023-01-31T04:06:54;96983.81;;;0.86;87.57
45345;BME280;31078;48.304;11.896;2023-01-31T04:09:21;96983.16;;;0.78;87.86
45345;BME280;31078;48.304;11.896;2023-01-31T04:11:49;96989.81;;;0.76;88.18
45345;BME280;31078;48.304;11.896;2023-01-31T04:14:16;96985.16;;;0.71;88.22
45345;BME280;31078;48.304;11.896;2023-01-31T04:16:42;97004.97;;;0.70;88.14
45345;BME280;31078;48.304;11.896;2023-01-31T04:19:09;96999.00;;;0.80;88.14
45345;BME280;31078;48.304;11.896;2023-01-31T04:21:36;97005.53;;;0.72;87.89
45345;BME280;31078;48.304;11.896;2023-01-31T04:24:04;97003.13;;;0.71;87.65
45345;BME280;31078;48.304;11.896;2023-01-31T04:26:31;97018.47;;;0.75;87.67
45345;BME280;31078;48.304;11.896;2023-01-31T04:28:57;97015.25;;;0.73;87.73
45345;BME280;31078;48.304;11.896;2023-01-31T04:31:24;97015.94;;;0.69;87.56
45345;BME280;31078;48.304;11.896;2023-01-31T04:33:50;97014.53;;;0.66;87.97
45345;BME280;31078;48.304;11.896;2023-01-31T04:36:17;97009.19;;;0.66;87.80
45345;BME280;31078;48.304;11.896;2023-01-31T04:38:43;97019.34;;;0.64;87.82
45345;BME280;31078;48.304;11.896;2023-01-31T04:41:11;97019.34;;;0.64;88.29
45345;BME280;31078;48.304;11.896;2023-01-31T04:43:38;97021.44;;;0.62;88.07
45345;BME280;31078;48.304;11.896;2023-01-31T04:46:04;97027.84;;;0.61;88.05
45345;BME280;31078;48.304;11.896;2023-01-31T04:48:31;97029.72;;;0.61;88.11
45345;BME280;31078;48.304;11.896;2023-01-31T04:50:57;97040.69;;;0.59;88.11
45345;BME280;31078;48.304;11.896;2023-01-31T04:53:24;97040.19;;;0.62;88.32
45345;BME280;31078;48.304;11.896;2023-01-31T04:55:52;97048.81;;;0.64;87.95
45345;BME280;31078;48.304;11.896;2023-01-31T04:58:20;97049.16;;;0.68;87.43
45345;BME280;31078;48.304;11.896;2023-01-31T05:00:47;97049.78;;;0.58;87.86
45345;BME280;31078;48.304;11.896;2023-01-31T05:03:13;97046.97;;;0.65;87.57
45345;BME280;31078;48.304;11.896;2023-01-31T05:05:40;97047.19;;;0.63;87.23
45345;BME280;31078;48.304;11.896;2023-01-31T05:08:06;97042.44;;;0.54;87.45
45345;BME280;31078;48.304;11.896;2023-01-31T05:10:33;97051.41;;;0.59;87.47
45345;BME280;31078;48.304;11.896;2023-01-31T05:13:00;97050.69;;;0.52;87.20
45345;BME280;31078;48.304;11.896;2023-01-31T05:15:28;97045.34;;;0.52;87.61
45345;BME280;31078;48.304;11.896;2023-01-31T05:17:54;97046.66;;;0.49;87.60
45345;BME280;31078;48.304;11.896;2023-01-31T05:20:27;97042.09;;;0.50;87.71
45345;BME280;31078;48.304;11.896;2023-01-31T05:22:53;97044.66;;;0.45;88.04
45345;BME280;31078;48.304;11.896;2023-01-31T05:25:20;97043.72;;;0.51;87.93
45345;BME280;31078;48.304;11.896;2023-01-31T05:27:46;97051.19;;;0.49;87.69
45345;BME280;31078;48.304;11.896;2023-01-31T05:30:13;97048.88;;;0.41;87.74
45345;BME280;31078;48.304;11.896;2023-01-31T05:32:41;97052.59;;;0.40;87.88
45345;BME280;31078;48.304;11.896;2023-01-31T05:35:10;97051.91;;;0.44;87.79
45345;BME280;31078;48.304;11.896;2023-01-31T05:37:36;97054.22;;;0.41;87.51
45345;BME280;31078;48.304;11.896;2023-01-31T05:40:07;97054.22;;;0.41;87.61
45345;BME280;31078;48.304;11.896;2023-01-31T05:42:34;97053.09;;;0.37;87.89
45345;BME280;31078;48.304;11.896;2023-01-31T05:45:00;97055.38;;;0.45;87.38
45345;BME280;31078;48.304;11.896;2023-01-31T05:47:27;97052.59;;;0.40;87.47
45345;BME280;31078;48.304;11.896;2023-01-31T05:49:55;97056.00;;;0.35;88.08
45345;BME280;31078;48.304;11.896;2023-01-31T05:52:22;97051.69;;;0.34;87.90
45345;BME280;31078;48.304;11.896;2023-01-31T05:54:48;97058.34;;;0.32;88.17
45345;BME280;31078;48.304;11.896;2023-01-31T05:57:16;97055.66;;;0.32;88.16
45345;BME280;31078;48.304;11.896;2023-01-31T05:59:42;97066.38;;;0.32;87.79
45345;BME280;31078;48.304;11.896;2023-01-31T06:02:09;97067.66;;;0.29;88.24
45345;BME280;31078;48.304;11.896;2023-01-31T06:04:36;97068.00;;;0.33;87.90
45345;BME280;31078;48.304;11.896;2023-01-31T06:07:04;97068.00;;;0.33;87.64
45345;BME280;31078;48.304;11.896;2023-01-31T06:09:31;97067.75;;;0.34;87.57
45345;BME280;31078;48.304;11.896;2023-01-31T06:11:57;97053.19;;;0.30;87.91
45345;BME280;31078;48.304;11.896;2023-01-31T06:14:24;97056.94;;;0.29;87.48
45345;BME280;31078;48.304;11.896;2023-01-31T06:16:50;97059.25;;;0.25;87.72
45345;BME280;31078;48.304;11.896;2023-01-31T06:19:17;97058.81;;;0.29;87.75
45345;BME280;31078;48.304;11.896;2023-01-31T06:21:45;97058.91;;;0.34;87.77
45345;BME280;31078;48.304;11.896;2023-01-31T06:24:13;97060.31;;;0.24;87.73
45345;BME280;31078;48.304;11.896;2023-01-31T06:26:40;97069.50;;;0.29;88.05
45345;BME280;31078;48.304;11.896;2023-01-31T06:29:07;97069.50;;;0.29;87.61
45345;BME280;31078;48.304;11.896;2023-01-31T06:31:33;97083.03;;;0.34;87.85
45345;BME280;31078;48.304;11.896;2023-01-31T06:34:00;97092.13;;;0.33;87.78
45345;BME280;31078;48.304;11.896;2023-01-31T06:36:27;97086.66;;;0.28;88.24
45345;BME280;31078;48.304;11.896;2023-01-31T06:38:56;97092.81;;;0.28;88.22
45345;BME280;31078;48.304;11.896;2023-01-31T06:41:24;97089.44;;;0.33;87.96
45345;BME280;31078;48.304;11.896;2023-01-31T06:43:50;97088.94;;;0.36;87.07
45345;BME280;31078;48.304;11.896;2023-01-31T06:46:17;97081.59;;;0.31;87.22
45345;BME280;31078;48.304;11.896;2023-01-31T06:48:43;97085.59;;;0.29;87.24
45345;BME280;31078;48.304;11.896;2023-01-31T06:51:11;97095.34;;;0.35;87.05
45345;BME280;31078;48.304;11.896;2023-01-31T06:53:37;97086.28;;;0.36;86.34
45345;BME280;31078;48.304;11.896;2023-01-31T06:56:05;97086.88;;;0.38;86.64
45345;BME280;31078;48.304;11.896;2023-01-31T06:58:33;97093.41;;;0.42;86.08
45345;BME280;31078;48.304;11.896;2023-01-31T07:01:03;97083.81;;;0.46;85.29
45345;BME280;31078;48.304;11.896;2023-01-31T07:03:30;97085.91;;;0.44;85.77
45345;BME280;31078;48.304;11.896;2023-01-31T07:05:56;97100.25;;;0.49;85.20
45345;BME280;31078;48.304;11.896;2023-01-31T07:08:23;97101.50;;;0.47;85.32
45345;BME280;31078;48.304;11.896;2023-01-31T07:10:50;97099.78;;;0.52;85.22
45345;BME280;31078;48.304;11.896;2023-01-31T07:13:16;97108.03;;;0.51;84.95
45345;BME280;31078;48.304;11.896;2023-01-31T07:15:45;97099.53;;;0.54;84.98
45345;BME280;31078;48.304;11.896;2023-01-31T07:18:12;97099.66;;;0.59;83.86
45345;BME280;31078;48.304;11.896;2023-01-31T07:20:38;97086.81;;;0.61;84.17
45345;BME280;31078;48.304;11.896;2023-01-31T07:23:05;97095.44;;;0.63;84.53
45345;BME280;31078;48.304;11.896;2023-01-31T07:25:33;97096.72;;;0.61;84.06
45345;BME280;31078;48.304;11.896;2023-01-31T07:28:00;97106.38;;;0.62;84.15
45345;BME280;31078;48.304;11.896;2023-01-31T07:30:27;97110.94;;;0.61;84.09
45345;BME280;31078;48.304;11.896;2023-01-31T07:32:55;97111.53;;;0.63;83.65
45345;BME280;31078;48.304;11.896;2023-01-31T07:35:22;97107.78;;;0.64;83.55
45345;BME280;31078;48.304;11.896;2023-01-31T07:37:50;97108.84;;;0.63;83.67
45345;BME280;31078;48.304;11.896;2023-01-31T07:40:17;97112.56;;;0.62;84.14
45345;BME280;31078;48.304;11.896;2023-01-31T07:42:44;97110.72;;;0.63;83.39
45345;BME280;31078;48.304;11.896;2023-01-31T07:45:12;97122.25;;;0.63;84.03
45345;BME280;31078;48.304;11.896;2023-01-31T07:47:39;97125.75;;;0.64;84.14
45345;BME280;31078;48.304;11.896;2023-01-31T07:50:09;97118.50;;;0.64;83.64
45345;BME280;31078;48.304;11.896;2023-01-31T07:52:36;97123.88;;;0.64;83.54
45345;BME280;31078;48.304;11.896;2023-01-31T07:55:03;97118.03;;;0.67;83.65
45345;BME280;31078;48.304;11.896;2023-01-31T07:57:30;97114.53;;;0.67;83.42
45345;BME280;31078;48.304;11.896;2023-01-31T07:59:57;97120.94;;;0.66;83.66
45345;BME280;31078;48.304;11.896;2023-01-31T08:02:23;97116.88;;;0.63;83.87
45345;BME280;31078;48.304;11.896;2023-01-31T08:05:09;97117.81;;;0.69;83.70
45345;BME280;31078;48.304;11.896;2023-01-31T08:07:35;97128.75;;;0.67;83.22
45345;BME280;31078;48.304;11.896;2023-01-31T08:10:03;97124.56;;;0.71;82.91
45345;BME280;31078;48.304;11.896;2023-01-31T08:12:29;97133.19;;;0.73;82.50
45345;BME280;31078;48.304;11.896;2023-01-31T08:14:56;97123.50;;;0.72;83.32
45345;BME280;31078;48.304;11.896;2023-01-31T08:17:22;97138.06;;;0.76;83.01
45345;BME280;31078;48.304;11.896;2023-01-31T08:19:49;97126.78;;;0.74;82.47
45345;BME280;31078;48.304;11.896;2023-01-31T08:22:17;97127.69;;;0.80;82.64
45345;BME280;31078;48.304;11.896;2023-01-31T08:24:43;97134.22;;;0.84;82.80
45345;BME280;31078;48.304;11.896;2023-01-31T08:27:10;97131.28;;;0.86;82.83
45345;BME280;31078;48.304;11.896;2023-01-31T08:29:36;97127.56;;;0.87;82.27
45345;BME280;31078;48.304;11.896;2023-01-31T08:32:03;97127.28;;;1.00;81.27
45345;BME280;31078;48.304;11.896;2023-01-31T08:34:29;97136.84;;;0.96;81.56
45345;BME280;31078;48.304;11.896;2023-01-31T08:36:56;97134.75;;;0.98;81.63
45345;BME280;31078;48.304;11.896;2023-01-31T08:39:24;97138.47;;;0.97;81.57
45345;BME280;31078;48.304;11.896;2023-01-31T08:41:50;97129.72;;;1.01;81.28
45345;BME280;31078;48.304;11.896;2023-01-31T08:44:17;97136.00;;;1.07;81.50
45345;BME280;31078;48.304;11.896;2023-01-31T08:46:43;97129.47;;;1.03;80.48
45345;BME280;31078;48.304;11.896;2023-01-31T08:49:10;97134.00;;;1.14;80.44
45345;BME280;31078;48.304;11.896;2023-01-31T08:51:37;97129.78;;;1.18;79.96
45345;BME280;31078;48.304;11.896;2023-01-31T08:54:03;97128.72;;;1.48;79.43
45345;BME280;31078;48.304;11.896;2023-01-31T08:56:31;97127.16;;;1.80;77.63
45345;BME280;31078;48.304;11.896;2023-01-31T08:58:58;97123.41;;;1.81;77.10
45345;BME280;31078;48.304;11.896;2023-01-31T09:01:24;97121.38;;;1.89;76.56
45345;BME280;31078;48.304;11.896;2023-01-31T09:03:51;97116.75;;;1.84;76.29
45345;BME280;31078;48.304;11.896;2023-01-31T09:06:22;97121.94;;;1.91;76.58
45345;BME280;31078;48.304;11.896;2023-01-31T09:08:50;97117.00;;;1.99;77.00
45345;BME280;31078;48.304;11.896;2023-01-31T09:11:16;97113.97;;;2.13;75.58
45345;BME280;31078;48.304;11.896;2023-01-31T09:13:45;97120.44;;;2.33;74.24
45345;BME280;31078;48.304;11.896;2023-01-31T09:16:13;97128.13;;;2.42;74.09
45345;BME280;31078;48.304;11.896;2023-01-31T09:18:40;97137.25;;;2.41;73.26
45345;BME280;31078;48.304;11.896;2023-01-31T09:21:08;97128.13;;;2.42;73.30
45345;BME280;31078;48.304;11.896;2023-01-31T09:23:36;97122.09;;;2.18;72.60
45345;BME280;31078;48.304;11.896;2023-01-31T09:26:03;97122.69;;;2.58;72.78
45345;BME280;31078;48.304;11.896;2023-01-31T09:28:30;97124.41;;;2.86;72.90
45345;BME280;31078;48.304;11.896;2023-01-31T09:31:02;97120.97;;;2.91;71.00
45345;BME280;31078;48.304;11.896;2023-01-31T09:33:30;97127.28;;;3.02;69.97
45345;BME280;31078;48.304;11.896;2023-01-31T09:35:58;97130.09;;;2.90;68.18
45345;BME280;31078;48.304;11.896;2023-01-31T09:38:25;97140.41;;;2.76;68.19
45345;BME280;31078;48.304;11.896;2023-01-31T09:40:53;97142.78;;;3.38;67.67
45345;BME280;31078;48.304;11.896;2023-01-31T09:43:24;97135.78;;;3.37;67.16
45345;BME280;31078;48.304;11.896;2023-01-31T09:45:53;97143.06;;;3.15;66.12
45345;BME280;31078;48.304;11.896;2023-01-31T09:48:27;97143.13;;;3.20;66.47
45345;BME280;31078;48.304;11.896;2023-01-31T09:50:57;97145.53;;;3.44;65.35
45345;BME280;31078;48.304;11.896;2023-01-31T09:53:28;97148.22;;;3.98;64.96
45345;BME280;31078;48.304;11.896;2023-01-31T09:56:05;97147.44;;;4.34;64.87
45345;BME280;31078;48.304;11.896;2023-01-31T09:58:43;97144.31;;;4.53;62.09
45345;BME280;31078;48.304;11.896;2023-01-31T10:01:19;97138.56;;;3.48;63.75
45345;BME280;31078;48.304;11.896;2023-01-31T10:03:58;97133.44;;;3.19;63.93
45345;BME280;31078;48.304;11.896;2023-01-31T10:06:35;97136.06;;;3.14;64.98
45345;BME280;31078;48.304;11.896;2023-01-31T10:09:06;97133.78;;;2.84;65.54
45345;BME280;31078;48.304;11.896;2023-01-31T10:11:39;97125.59;;;2.96;65.37
45345;BME280;31078;48.304;11.896;2023-01-31T10:14:20;97116.53;;;3.24;62.43
45345;BME280;31078;48.304;11.896;2023-01-31T10:16:59;97107.66;;;3.50;64.51
45345;BME280;31078;48.304;11.896;2023-01-31T10:19:35;97108.75;;;3.27;63.69
45345;BME280;31078;48.304;11.896;2023-01-31T10:22:07;97118.84;;;3.15;63.01
45345;BME280;31078;48.304;11.896;2023-01-31T10:24:38;97104.00;;;3.12;63.24
45345;BME280;31078;48.304;11.896;2023-01-31T10:27:11;97106.41;;;3.63;62.39
45345;BME280;31078;48.304;11.896;2023-01-31T10:29:43;97102.66;;;3.64;62.81
45345;BME280;31078;48.304;11.896;2023-01-31T10:32:18;97108.28;;;3.62;63.93
45345;BME280;31078;48.304;11.896;2023-01-31T10:34:49;97101.00;;;3.09;64.33
45345;BME280;31078;48.304;11.896;2023-01-31T10:37:26;97107.34;;;2.98;64.48
45345;BME280;31078;48.304;11.896;2023-01-31T10:40:00;97116.41;;;3.13;63.52
45345;BME280;31078;48.304;11.896;2023-01-31T10:42:29;97105.25;;;3.05;64.09
45345;BME280;31078;48.304;11.896;2023-01-31T10:45:01;97104.50;;;3.09;62.16
45345;BME280;31078;48.304;11.896;2023-01-31T10:47:31;97098.56;;;3.29;63.51
45345;BME280;31078;48.304;11.896;2023-01-31T10:50:00;97097.38;;;3.20;63.68
45345;BME280;31078;48.304;11.896;2023-01-31T10:52:39;97086.63;;;2.76;63.86
45345;BME280;31078;48.304;11.896;2023-01-31T10:55:27;97087.31;;;2.67;64.53
45345;BME280;31078;48.304;11.896;2023-01-31T10:57:57;97097.88;;;2.73;64.75
45345;BME280;31078;48.304;11.896;2023-01-31T11:00:27;97086.44;;;2.83;64.98
45345;BME280;31078;48.304;11.896;2023-01-31T11:02:56;97087.38;;;2.94;64.75
45345;BME280;31078;48.304;11.896;2023-01-31T11:05:27;97083.31;;;2.91;64.77
45345;BME280;31078;48.304;11.896;2023-01-31T11:07:54;97084.00;;;2.81;64.64
45345;BME280;31078;48.304;11.896;2023-01-31T11:10:23;97082.09;;;2.60;65.16
45345;BME280;31078;48.304;11.896;2023-01-31T11:12:53;97069.72;;;2.59;65.66
45345;BME280;31078;48.304;11.896;2023-01-31T11:15:22;97061.41;;;2.60;65.07
45345;BME280;31078;48.304;11.896;2023-01-31T11:17:51;97051.50;;;2.61;65.13
45345;BME280;31078;48.304;11.896;2023-01-31T11:20:21;97046.16;;;2.66;64.84
45345;BME280;31078;48.304;11.896;2023-01-31T11:22:51;97043.28;;;2.73;65.36
45345;BME280;31078;48.304;11.896;2023-01-31T11:25:19;97036.50;;;2.92;64.81
45345;BME280;31078;48.304;11.896;2023-01-31T11:27:47;97035.69;;;2.92;64.98
45345;BME280;31078;48.304;11.896;2023-01-31T11:30:20;97039.66;;;3.11;64.94
45345;BME280;31078;48.304;11.896;2023-01-31T11:32:48;97024.50;;;3.00;64.77
45345;BME280;31078;48.304;11.896;2023-01-31T11:35:23;97015.81;;;2.93;63.74
45345;BME280;31078;48.304;11.896;2023-01-31T11:37:53;97005.41;;;3.01;61.54
45345;BME280;31078;48.304;11.896;2023-01-31T11:40:26;97002.38;;;2.93;62.19
45345;BME280;31078;48.304;11.896;2023-01-31T11:42:56;96992.09;;;2.90;62.51
45345;BME280;31078;48.304;11.896;2023-01-31T11:45:24;96990.63;;;3.04;63.24
45345;BME280;31078;48.304;11.896;2023-01-31T11:47:53;96986.63;;;3.06;63.22
45345;BME280;31078;48.304;11.896;2023-01-31T11:50:22;96987.16;;;2.81;62.88
45345;BME280;31078;48.304;11.896;2023-01-31T11:52:55;96984.78;;;2.85;62.54
45345;BME280;31078;48.304;11.896;2023-01-31T11:55:23;96981.28;;;2.84;62.36
45345;BME280;31078;48.304;11.896;2023-01-31T11:57:55;96979.66;;;2.83;63.37
45345;BME280;31078;48.304;11.896;2023-01-31T12:00:25;96972.78;;;2.93;63.80
45345;BME280;31078;48.304;11.896;2023-01-31T12:02:58;96969.81;;;2.94;63.83
45345;BME280;31078;48.304;11.896;2023-01-31T12:05:34;96964.13;;;2.91;65.40
45345;BME280;31078;48.304;11.896;2023-01-31T12:08:03;96963.06;;;2.92;65.22
45345;BME280;31078;48.304;11.896;2023-01-31T12:10:33;96964.75;;;2.98;64.32
45345;BME280;31078;48.304;11.896;2023-01-31T12:13:07;96957.88;;;2.85;64.75
45345;BME280;31078;48.304;11.896;2023-01-31T12:15:44;96975.09;;;2.84;64.33
45345;BME280;31078;48.304;11.896;2023-01-31T12:18:12;96971.66;;;2.88;65.00
45345;BME280;31078;48.304;11.896;2023-01-31T12:20:44;96969.72;;;2.84;63.54
45345;BME280;31078;48.304;11.896;2023-01-31T12:23:24;96966.88;;;2.96;63.84
45345;BME280;31078;48.304;11.896;2023-01-31T12:26:04;96965.66;;;3.08;64.94
45345;BME280;31078;48.304;11.896;2023-01-31T12:28:49;96954.19;;;2.91;63.68
45345;BME280;31078;48.304;11.896;2023-01-31T12:31:30;96952.88;;;2.94;63.65
45345;BME280;31078;48.304;11.896;2023-01-31T12:34:10;96945.97;;;3.03;64.17
45345;BME280;31078;48.304;11.896;2023-01-31T12:36:54;96939.94;;;3.23;65.26
45345;BME280;31078;48.304;11.896;2023-01-31T12:39:41;96932.22;;;3.31;65.33
45345;BME280;31078;48.304;11.896;2023-01-31T12:42:24;96935.84;;;3.15;64.60
45345;BME280;31078;48.304;11.896;2023-01-31T12:45:02;96935.22;;;3.08;66.99
45345;BME280;31078;48.304;11.896;2023-01-31T12:47:43;96928.19;;;2.75;65.39
45345;BME280;31078;48.304;11.896;2023-01-31T12:50:25;96924.16;;;2.72;66.27
45345;BME280;31078;48.304;11.896;2023-01-31T12:53:12;96926.16;;;2.60;66.92
45345;BME280;31078;48.304;11.896;2023-01-31T12:55:51;96916.53;;;2.64;66.66
45345;BME280;31078;48.304;11.896;2023-01-31T12:58:33;96930.13;;;2.79;66.28
45345;BME280;31078;48.304;11.896;2023-01-31T13:01:09;96937.66;;;2.77;66.35
45345;BME280;31078;48.304;11.896;2023-01-31T13:03:47;96934.59;;;2.96;66.06
45345;BME280;31078;48.304;11.896;2023-01-31T13:06:22;96941.09;;;3.00;66.91
45345;BME280;31078;48.304;11.896;2023-01-31T13:08:52;96938.03;;;2.91;66.25
45345;BME280;31078;48.304;11.896;2023-01-31T13:11:26;96917.63;;;2.95;67.37
45345;BME280;31078;48.304;11.896;2023-01-31T13:13:58;96911.53;;;3.05;67.42
45345;BME280;31078;48.304;11.896;2023-01-31T13:16:29;96912.66;;;3.09;67.27
45345;BME280;31078;48.304;11.896;2023-01-31T13:19:00;96899.16;;;3.04;66.80
45345;BME280;31078;48.304;11.896;2023-01-31T13:21:30;96901.91;;;3.09;67.64
45345;BME280;31078;48.304;11.896;2023-01-31T13:24:02;96913.22;;;2.84;66.97